createdAt,value
2018-12-23T00:00:37.749Z,21.12
2018-12-23T00:01:37.721Z,21.15
2018-12-23T00:02:37.708Z,21.15
2018-12-23T00:03:37.719Z,21.16
2018-12-23T00:04:37.726Z,21.21
2018-12-23T00:05:37.683Z,21.19
2018-12-23T00:06:37.671Z,21.23
2018-12-23T00:07:37.661Z,21.25
2018-12-23T00:08:37.662Z,21.28
2018-12-23T00:09:37.661Z,21.22
2018-12-23T00:10:37.630Z,21.16
2018-12-23T00:11:37.618Z,21.18
2018-12-23T00:12:37.614Z,21.18
2018-12-23T00:13:37.598Z,21.16
2018-12-23T00:14:37.580Z,21.19
2018-12-23T00:15:37.590Z,21.08
2018-12-23T00:16:38.980Z,21.13
2018-12-23T00:17:37.550Z,21.09
2018-12-23T00:18:37.543Z,21.03
2018-12-23T00:19:37.553Z,21.13
2018-12-23T00:20:38.019Z,21.00
2018-12-23T00:21:37.523Z,21.13
2018-12-23T00:22:37.501Z,21.16
2018-12-23T00:23:37.486Z,21.15
2018-12-23T00:24:37.500Z,21.15
2018-12-23T00:25:37.458Z,21.25
2018-12-23T00:26:37.480Z,21.16
2018-12-23T00:27:37.464Z,21.18
2018-12-23T00:28:37.443Z,21.12
2018-12-23T00:29:37.445Z,21.08
2018-12-23T00:30:37.418Z,21.16
2018-12-23T00:31:37.415Z,21.03
2018-12-23T00:32:37.404Z,21.06
2018-12-23T00:33:37.383Z,21.15
2018-12-23T00:34:37.371Z,21.03
2018-12-23T00:35:37.362Z,21.04
2018-12-23T00:36:38.496Z,21.13
2018-12-23T00:37:37.339Z,21.15
2018-12-23T00:38:37.364Z,21.06
2018-12-23T00:39:37.333Z,21.11
2018-12-23T00:40:37.325Z,21.16
2018-12-23T00:41:37.304Z,21.19
2018-12-23T00:42:37.283Z,21.25
2018-12-23T00:43:37.276Z,21.23
2018-12-23T00:44:37.550Z,21.22
2018-12-23T00:45:37.253Z,21.18
2018-12-23T00:46:37.264Z,21.21
2018-12-23T00:47:37.276Z,21.11
2018-12-23T00:48:37.242Z,21.09
2018-12-23T00:49:37.215Z,21.13
2018-12-23T00:50:37.209Z,21.13
2018-12-23T00:51:37.193Z,21.15
2018-12-23T00:52:37.205Z,21.13
2018-12-23T00:53:37.171Z,21.15
2018-12-23T00:54:37.160Z,21.13
2018-12-23T00:55:37.166Z,21.00
2018-12-23T00:56:37.158Z,21.04
2018-12-23T00:57:37.134Z,21.08
2018-12-23T00:58:37.118Z,21.18
2018-12-23T00:59:37.140Z,21.18
2018-12-23T01:00:37.094Z,21.13
2018-12-23T01:01:37.118Z,21.16
2018-12-23T01:02:37.110Z,21.15
2018-12-23T01:03:37.059Z,21.11
2018-12-23T01:04:39.001Z,21.11
2018-12-23T01:05:37.045Z,21.09
2018-12-23T01:06:37.038Z,21.12
2018-12-23T01:07:37.033Z,21.11
2018-12-23T01:08:37.030Z,21.12
2018-12-23T01:09:37.003Z,21.13
2018-12-23T01:10:36.992Z,21.13
2018-12-23T01:11:36.985Z,21.01
2018-12-23T01:12:39.001Z,21.18
2018-12-23T01:13:36.968Z,20.97
2018-12-23T01:14:36.953Z,21.01
2018-12-23T01:15:37.091Z,21.11
2018-12-23T01:16:36.943Z,21.15
2018-12-23T01:17:36.917Z,21.21
2018-12-23T01:18:36.911Z,21.21
2018-12-23T01:19:37.512Z,21.25
2018-12-23T01:20:36.905Z,21.27
2018-12-23T01:21:36.893Z,21.15
2018-12-23T01:22:37.143Z,21.12
2018-12-23T01:23:36.885Z,21.11
2018-12-23T01:24:36.858Z,21.11
2018-12-23T01:25:36.841Z,21.01
2018-12-23T01:26:39.003Z,21.12
2018-12-23T01:27:36.960Z,21.15
2018-12-23T01:28:36.817Z,21.08
2018-12-23T01:29:36.814Z,21.12
2018-12-23T01:30:36.784Z,21.22
2018-12-23T01:31:36.801Z,21.18
2018-12-23T01:32:36.764Z,21.18
2018-12-23T01:33:36.768Z,21.15
2018-12-23T01:34:37.250Z,21.19
2018-12-23T01:35:37.276Z,21.27
2018-12-23T01:36:38.000Z,21.25
2018-12-23T01:37:36.711Z,21.21
2018-12-23T01:38:36.701Z,21.21
2018-12-23T01:39:36.690Z,21.16
2018-12-23T01:40:36.685Z,21.22
2018-12-23T01:41:36.824Z,21.15
2018-12-23T01:42:36.722Z,21.15
2018-12-23T01:43:36.649Z,21.13
2018-12-23T01:44:36.636Z,21.13
2018-12-23T01:45:36.786Z,21.16
2018-12-23T01:46:38.003Z,21.13
2018-12-23T01:47:36.686Z,21.11
2018-12-23T01:48:36.624Z,21.03
2018-12-23T01:49:36.641Z,21.11
2018-12-23T01:50:36.590Z,21.18
2018-12-23T01:51:36.577Z,21.08
2018-12-23T01:52:36.589Z,21.12
2018-12-23T01:53:36.542Z,21.16
2018-12-23T01:54:36.532Z,21.12
2018-12-23T01:55:36.512Z,21.16
2018-12-23T01:56:36.506Z,21.21
2018-12-23T01:57:36.500Z,21.19
2018-12-23T01:58:37.012Z,21.11
2018-12-23T01:59:36.476Z,21.08
2018-12-23T02:00:36.568Z,21.11
2018-12-23T02:01:36.455Z,21.04
2018-12-23T02:02:36.440Z,21.06
2018-12-23T02:03:36.428Z,21.13
2018-12-23T02:04:36.430Z,21.04
2018-12-23T02:05:36.407Z,21.09
2018-12-23T02:06:36.399Z,21.15
2018-12-23T02:07:36.380Z,21.06
2018-12-23T02:08:36.387Z,21.18
2018-12-23T02:09:36.403Z,21.09
2018-12-23T02:10:36.371Z,21.18
2018-12-23T02:11:36.360Z,21.13
2018-12-23T02:12:36.334Z,21.28
2018-12-23T02:13:36.331Z,21.25
2018-12-23T02:14:36.308Z,21.28
2018-12-23T02:15:39.022Z,21.25
2018-12-23T02:16:36.292Z,21.22
2018-12-23T02:17:36.284Z,21.23
2018-12-23T02:18:36.288Z,21.15
2018-12-23T02:19:36.255Z,21.13
2018-12-23T02:20:36.239Z,21.09
2018-12-23T02:21:36.240Z,21.01
2018-12-23T02:22:36.249Z,21.16
2018-12-23T02:23:36.237Z,21.01
2018-12-23T02:24:36.211Z,21.03
2018-12-23T02:25:36.206Z,21.12
2018-12-23T02:26:36.288Z,21.03
2018-12-23T02:27:36.193Z,21.13
2018-12-23T02:28:36.191Z,21.11
2018-12-23T02:29:36.169Z,21.12
2018-12-23T02:30:36.171Z,21.12
2018-12-23T02:31:36.129Z,21.15
2018-12-23T02:32:36.119Z,21.31
2018-12-23T02:33:36.119Z,21.36
2018-12-23T02:34:36.116Z,21.33
2018-12-23T02:35:36.086Z,21.45
2018-12-23T02:36:36.078Z,21.36
2018-12-23T02:37:36.067Z,21.41
2018-12-23T02:38:36.061Z,21.30
2018-12-23T02:39:36.058Z,21.23
2018-12-23T02:40:36.057Z,21.31
2018-12-23T02:41:36.022Z,21.21
2018-12-23T02:42:36.018Z,21.21
2018-12-23T02:43:36.002Z,21.16
2018-12-23T02:44:35.998Z,21.11
2018-12-23T02:45:35.983Z,21.16
2018-12-23T02:46:36.010Z,21.19
2018-12-23T02:47:35.961Z,21.19
2018-12-23T02:48:35.952Z,21.18
2018-12-23T02:49:35.940Z,21.23
2018-12-23T02:50:35.932Z,21.27
2018-12-23T02:51:35.918Z,21.30
2018-12-23T02:52:35.924Z,21.33
2018-12-23T02:53:38.026Z,21.40
2018-12-23T02:54:35.882Z,21.38
2018-12-23T02:55:35.871Z,21.45
2018-12-23T02:56:35.874Z,21.41
2018-12-23T02:57:35.892Z,21.52
2018-12-23T02:58:35.842Z,21.45
2018-12-23T02:59:35.862Z,21.43
2018-12-23T03:00:35.826Z,21.38
2018-12-23T03:01:35.808Z,21.31
2018-12-23T03:02:35.815Z,21.30
2018-12-23T03:03:35.800Z,21.25
2018-12-23T03:04:35.780Z,21.23
2018-12-23T03:05:35.779Z,21.22
2018-12-23T03:06:35.760Z,21.16
2018-12-23T03:07:35.755Z,21.25
2018-12-23T03:08:35.768Z,21.22
2018-12-23T03:09:35.724Z,21.30
2018-12-23T03:10:35.711Z,21.40
2018-12-23T03:11:35.711Z,21.41
2018-12-23T03:12:35.721Z,21.41
2018-12-23T03:13:35.696Z,21.41
2018-12-23T03:14:36.535Z,21.52
2018-12-23T03:15:36.551Z,21.43
2018-12-23T03:16:35.661Z,21.45
2018-12-23T03:17:35.651Z,21.38
2018-12-23T03:18:35.651Z,21.43
2018-12-23T03:19:35.621Z,21.31
2018-12-23T03:20:35.607Z,21.28
2018-12-23T03:21:35.601Z,21.25
2018-12-23T03:22:37.039Z,21.18
2018-12-23T03:23:35.579Z,21.19
2018-12-23T03:24:35.583Z,21.19
2018-12-23T03:25:35.563Z,21.22
2018-12-23T03:26:35.546Z,21.12
2018-12-23T03:27:35.557Z,21.22
2018-12-23T03:28:35.541Z,21.15
2018-12-23T03:29:35.545Z,21.21
2018-12-23T03:30:35.512Z,21.23
2018-12-23T03:31:35.522Z,21.22
2018-12-23T03:32:35.543Z,21.16
2018-12-23T03:33:35.476Z,21.21
2018-12-23T03:34:35.464Z,21.11
2018-12-23T03:35:35.461Z,21.08
2018-12-23T03:36:35.473Z,21.09
2018-12-23T03:37:35.426Z,21.03
2018-12-23T03:38:35.423Z,21.00
2018-12-23T03:39:35.407Z,21.01
2018-12-23T03:40:35.404Z,21.00
2018-12-23T03:41:35.420Z,21.06
2018-12-23T03:42:36.538Z,20.91
2018-12-23T03:43:35.369Z,21.00
2018-12-23T03:44:35.354Z,21.01
2018-12-23T03:45:35.344Z,21.00
2018-12-23T03:46:35.331Z,21.03
2018-12-23T03:47:35.327Z,20.97
2018-12-23T03:48:35.314Z,21.15
2018-12-23T03:49:35.308Z,21.12
2018-12-23T03:50:35.299Z,21.03
2018-12-23T03:51:36.049Z,21.11
2018-12-23T03:52:35.282Z,21.09
2018-12-23T03:53:36.053Z,21.11
2018-12-23T03:54:35.259Z,21.00
2018-12-23T03:55:35.270Z,20.97
2018-12-23T03:56:35.250Z,21.01
2018-12-23T03:57:35.253Z,21.00
2018-12-23T03:58:35.200Z,21.00
2018-12-23T03:59:35.192Z,20.97
2018-12-23T04:00:35.187Z,20.97
2018-12-23T04:01:35.171Z,20.94
2018-12-23T04:02:35.185Z,20.85
2018-12-23T04:03:35.154Z,21.00
2018-12-23T04:04:35.143Z,20.96
2018-12-23T04:05:35.136Z,20.97
2018-12-23T04:06:35.121Z,21.08
2018-12-23T04:07:35.148Z,21.12
2018-12-23T04:08:35.102Z,21.11
2018-12-23T04:09:35.097Z,21.12
2018-12-23T04:10:35.103Z,21.13
2018-12-23T04:11:35.094Z,21.08
2018-12-23T04:12:35.060Z,21.06
2018-12-23T04:13:35.047Z,21.13
2018-12-23T04:14:35.037Z,20.97
2018-12-23T04:15:35.024Z,21.01
2018-12-23T04:16:35.022Z,20.93
2018-12-23T04:17:35.035Z,20.85
2018-12-23T04:18:34.998Z,20.88
2018-12-23T04:19:34.985Z,20.90
2018-12-23T04:20:34.975Z,20.97
2018-12-23T04:21:34.961Z,20.94
2018-12-23T04:22:34.957Z,21.03
2018-12-23T04:23:34.938Z,21.09
2018-12-23T04:24:34.932Z,21.08
2018-12-23T04:25:34.922Z,21.01
2018-12-23T04:26:34.910Z,21.08
2018-12-23T04:27:34.906Z,21.00
2018-12-23T04:28:35.562Z,21.12
2018-12-23T04:29:36.280Z,21.11
2018-12-23T04:30:34.873Z,21.08
2018-12-23T04:31:34.864Z,21.13
2018-12-23T04:32:34.847Z,20.98
2018-12-23T04:33:34.836Z,21.08
2018-12-23T04:34:34.829Z,20.98
2018-12-23T04:35:34.819Z,21.08
2018-12-23T04:36:34.818Z,20.98
2018-12-23T04:37:34.814Z,21.13
2018-12-23T04:38:34.784Z,21.00
2018-12-23T04:39:34.782Z,21.03
2018-12-23T04:40:34.772Z,21.13
2018-12-23T04:41:34.758Z,21.12
2018-12-23T04:42:34.746Z,21.08
2018-12-23T04:43:34.745Z,21.03
2018-12-23T04:44:34.719Z,21.12
2018-12-23T04:45:34.708Z,21.16
2018-12-23T04:46:34.699Z,21.12
2018-12-23T04:47:34.712Z,21.08
2018-12-23T04:48:34.678Z,21.00
2018-12-23T04:49:34.662Z,21.08
2018-12-23T04:50:34.662Z,21.09
2018-12-23T04:51:34.640Z,21.16
2018-12-23T04:52:34.637Z,21.04
2018-12-23T04:53:34.627Z,21.13
2018-12-23T04:54:34.609Z,21.08
2018-12-23T04:55:34.603Z,21.03
2018-12-23T04:56:34.597Z,21.09
2018-12-23T04:57:34.579Z,21.00
2018-12-23T04:58:34.571Z,21.06
2018-12-23T04:59:34.557Z,21.00
2018-12-23T05:00:34.549Z,21.09
2018-12-23T05:01:34.554Z,21.08
2018-12-23T05:02:34.527Z,21.11
2018-12-23T05:03:42.613Z,20.98
2018-12-23T05:04:35.505Z,21.15
2018-12-23T05:05:34.517Z,21.11
2018-12-23T05:06:43.085Z,21.23
2018-12-23T05:07:35.476Z,21.16
2018-12-23T05:08:34.527Z,21.16
2018-12-23T05:09:34.462Z,21.23
2018-12-23T05:10:34.447Z,21.34
2018-12-23T05:11:34.431Z,21.43
2018-12-23T05:12:34.423Z,21.55
2018-12-23T05:13:34.518Z,21.73
2018-12-23T05:14:34.399Z,21.92
2018-12-23T05:15:34.394Z,22.08
2018-12-23T05:16:34.383Z,22.27
2018-12-23T05:17:34.470Z,22.41
2018-12-23T05:18:34.358Z,22.60
2018-12-23T05:19:34.378Z,22.82
2018-12-23T05:20:34.341Z,22.97
2018-12-23T05:21:34.330Z,23.14
2018-12-23T05:22:34.327Z,23.29
2018-12-23T05:23:34.303Z,23.41
2018-12-23T05:24:34.293Z,23.57
2018-12-23T05:25:34.292Z,23.66
2018-12-23T05:26:34.277Z,23.79
2018-12-23T05:27:34.320Z,23.94
2018-12-23T05:28:34.253Z,23.93
2018-12-23T05:29:34.244Z,24.07
2018-12-23T05:30:34.235Z,24.15
2018-12-23T05:31:34.224Z,24.24
2018-12-23T05:32:34.241Z,24.30
2018-12-23T05:33:34.202Z,24.37
2018-12-23T05:34:34.183Z,24.48
2018-12-23T05:35:34.178Z,24.49
2018-12-23T05:36:34.168Z,24.54
2018-12-23T05:37:34.178Z,24.56
2018-12-23T05:38:34.153Z,24.61
2018-12-23T05:39:34.134Z,24.59
2018-12-23T05:40:34.146Z,24.70
2018-12-23T05:41:34.116Z,24.75
2018-12-23T05:42:34.105Z,24.71
2018-12-23T05:43:34.091Z,24.87
2018-12-23T05:44:34.082Z,24.83
2018-12-23T05:45:34.084Z,24.97
2018-12-23T05:46:34.064Z,24.97
2018-12-23T05:47:34.062Z,25.01
2018-12-23T05:48:34.049Z,25.14
2018-12-23T05:49:34.046Z,25.01
2018-12-23T05:50:34.024Z,25.12
2018-12-23T05:51:34.007Z,25.01
2018-12-23T05:52:34.009Z,25.17
2018-12-23T05:53:34.000Z,25.12
2018-12-23T05:54:34.013Z,25.22
2018-12-23T05:55:33.967Z,25.22
2018-12-23T05:56:33.952Z,25.20
2018-12-23T05:57:33.948Z,25.22
2018-12-23T05:58:33.934Z,25.29
2018-12-23T05:59:33.920Z,25.27
2018-12-23T06:00:33.912Z,25.29
2018-12-23T06:01:33.901Z,25.24
2018-12-23T06:02:33.899Z,25.30
2018-12-23T06:03:33.880Z,25.23
2018-12-23T06:04:33.870Z,25.23
2018-12-23T06:05:34.193Z,25.30
2018-12-23T06:06:33.846Z,25.37
2018-12-23T06:07:33.857Z,25.33
2018-12-23T06:08:33.828Z,25.39
2018-12-23T06:09:33.822Z,25.34
2018-12-23T06:10:33.809Z,25.42
2018-12-23T06:11:33.799Z,25.51
2018-12-23T06:12:33.784Z,25.47
2018-12-23T06:13:33.771Z,25.47
2018-12-23T06:14:33.776Z,25.47
2018-12-23T06:15:33.755Z,25.56
2018-12-23T06:16:33.744Z,25.59
2018-12-23T06:17:33.732Z,25.52
2018-12-23T06:18:33.725Z,25.60
2018-12-23T06:19:33.736Z,25.52
2018-12-23T06:20:33.721Z,25.45
2018-12-23T06:21:33.684Z,25.51
2018-12-23T06:22:33.678Z,25.51
2018-12-23T06:23:33.684Z,25.52
2018-12-23T06:24:33.659Z,25.63
2018-12-23T06:25:33.655Z,25.62
2018-12-23T06:26:33.640Z,25.63
2018-12-23T06:27:33.640Z,25.69
2018-12-23T06:28:33.613Z,25.60
2018-12-23T06:29:33.606Z,25.63
2018-12-23T06:30:33.594Z,25.63
2018-12-23T06:31:33.604Z,25.63
2018-12-23T06:32:33.578Z,25.70
2018-12-23T06:33:33.564Z,25.74
2018-12-23T06:34:33.549Z,25.70
2018-12-23T06:35:33.569Z,25.67
2018-12-23T06:36:33.543Z,25.66
2018-12-23T06:37:33.520Z,25.74
2018-12-23T06:38:34.584Z,25.71
2018-12-23T06:39:33.500Z,25.71
2018-12-23T06:40:33.489Z,25.71
2018-12-23T06:41:33.492Z,25.67
2018-12-23T06:42:33.468Z,25.76
2018-12-23T06:43:33.473Z,25.71
2018-12-23T06:44:33.451Z,25.69
2018-12-23T06:45:33.451Z,25.66
2018-12-23T06:46:33.425Z,25.76
2018-12-23T06:47:33.415Z,25.78
2018-12-23T06:48:35.506Z,25.70
2018-12-23T06:49:34.104Z,25.78
2018-12-23T06:50:33.382Z,25.74
2018-12-23T06:51:33.376Z,25.78
2018-12-23T06:52:33.365Z,25.76
2018-12-23T06:53:33.354Z,25.67
2018-12-23T06:54:33.338Z,25.74
2018-12-23T06:55:33.345Z,25.74
2018-12-23T06:56:33.313Z,25.81
2018-12-23T06:57:33.314Z,25.71
2018-12-23T06:58:33.308Z,25.66
2018-12-23T06:59:33.288Z,25.64
2018-12-23T07:00:33.284Z,25.76
2018-12-23T07:01:33.262Z,25.69
2018-12-23T07:02:33.255Z,25.74
2018-12-23T07:03:33.244Z,25.74
2018-12-23T07:04:34.346Z,25.79
2018-12-23T07:05:33.236Z,25.79
2018-12-23T07:06:33.218Z,25.71
2018-12-23T07:07:33.203Z,25.76
2018-12-23T07:08:33.194Z,25.79
2018-12-23T07:09:33.181Z,25.75
2018-12-23T07:10:33.176Z,25.81
2018-12-23T07:11:33.159Z,25.79
2018-12-23T07:12:33.159Z,25.78
2018-12-23T07:13:33.139Z,25.70
2018-12-23T07:14:33.136Z,25.79
2018-12-23T07:15:33.119Z,25.78
2018-12-23T07:16:33.113Z,25.74
2018-12-23T07:17:33.129Z,25.71
2018-12-23T07:18:33.134Z,25.67
2018-12-23T07:19:33.077Z,25.74
2018-12-23T07:20:33.069Z,25.78
2018-12-23T07:21:33.058Z,25.74
2018-12-23T07:22:33.052Z,25.63
2018-12-23T07:23:33.043Z,25.75
2018-12-23T07:24:33.060Z,25.79
2018-12-23T07:25:33.015Z,25.76
2018-12-23T07:26:33.003Z,25.84
2018-12-23T07:27:32.997Z,25.78
2018-12-23T07:28:32.992Z,25.86
2018-12-23T07:29:33.046Z,25.78
2018-12-23T07:30:32.963Z,25.78
2018-12-23T07:31:33.042Z,25.84
2018-12-23T07:32:32.955Z,25.76
2018-12-23T07:33:32.927Z,25.82
2018-12-23T07:34:32.930Z,25.78
2018-12-23T07:35:32.933Z,25.91
2018-12-23T07:36:32.953Z,25.85
2018-12-23T07:37:32.887Z,25.88
2018-12-23T07:38:32.880Z,25.81
2018-12-23T07:39:32.864Z,25.85
2018-12-23T07:40:32.856Z,25.88
2018-12-23T07:41:32.862Z,25.91
2018-12-23T07:42:32.941Z,25.91
2018-12-23T07:43:32.824Z,25.91
2018-12-23T07:44:32.812Z,25.93
2018-12-23T07:45:32.803Z,25.94
2018-12-23T07:46:32.791Z,25.94
2018-12-23T07:47:32.815Z,25.99
2018-12-23T07:48:32.816Z,25.89
2018-12-23T07:49:32.768Z,25.97
2018-12-23T07:50:33.173Z,25.97
2018-12-23T07:51:32.742Z,25.91
2018-12-23T07:52:32.738Z,25.94
2018-12-23T07:53:32.727Z,25.96
2018-12-23T07:54:32.709Z,26.01
2018-12-23T07:55:32.699Z,25.85
2018-12-23T07:56:32.683Z,25.85
2018-12-23T07:57:32.678Z,25.85
2018-12-23T07:58:32.663Z,25.91
2018-12-23T07:59:32.689Z,25.96
2018-12-23T08:00:32.647Z,26.01
2018-12-23T08:01:32.632Z,26.00
2018-12-23T08:02:32.622Z,25.96
2018-12-23T08:03:32.621Z,25.96
2018-12-23T08:04:32.641Z,25.97
2018-12-23T08:05:32.624Z,25.99
2018-12-23T08:06:32.638Z,25.93
2018-12-23T08:07:36.287Z,26.06
2018-12-23T08:08:32.595Z,26.04
2018-12-23T08:09:32.589Z,26.01
2018-12-23T08:10:32.539Z,26.03
2018-12-23T08:11:32.538Z,26.04
2018-12-23T08:12:32.525Z,26.01
2018-12-23T08:13:32.507Z,26.04
2018-12-23T08:14:32.514Z,26.03
2018-12-23T08:15:32.534Z,26.03
2018-12-23T08:16:32.476Z,26.04
2018-12-23T08:17:32.469Z,26.11
2018-12-23T08:18:32.465Z,26.00
2018-12-23T08:19:32.441Z,26.03
2018-12-23T08:20:32.436Z,26.03
2018-12-23T08:21:32.425Z,26.03
2018-12-23T08:22:32.411Z,26.03
2018-12-23T08:23:32.416Z,26.06
2018-12-23T08:24:32.395Z,26.06
2018-12-23T08:25:35.765Z,26.07
2018-12-23T08:26:32.389Z,26.01
2018-12-23T08:27:32.357Z,25.99
2018-12-23T08:28:32.347Z,26.01
2018-12-23T08:29:32.409Z,25.99
2018-12-23T08:30:32.328Z,26.15
2018-12-23T08:31:32.408Z,26.03
2018-12-23T08:32:32.303Z,26.04
2018-12-23T08:33:32.309Z,26.09
2018-12-23T08:34:32.286Z,26.03
2018-12-23T08:35:32.277Z,26.01
2018-12-23T08:36:32.330Z,26.12
2018-12-23T08:37:32.250Z,26.11
2018-12-23T08:38:32.260Z,26.01
2018-12-23T08:39:32.233Z,26.12
2018-12-23T08:40:32.220Z,26.16
2018-12-23T08:41:33.092Z,26.17
2018-12-23T08:42:32.211Z,26.16
2018-12-23T08:43:32.191Z,26.17
2018-12-23T08:44:32.236Z,26.20
2018-12-23T08:45:32.172Z,26.11
2018-12-23T08:46:39.081Z,26.17
2018-12-23T08:47:33.149Z,26.09
2018-12-23T08:48:32.139Z,26.04
2018-12-23T08:49:32.127Z,26.01
2018-12-23T08:50:32.118Z,26.03
2018-12-23T08:51:32.108Z,26.03
2018-12-23T08:52:32.097Z,26.03
2018-12-23T08:53:32.092Z,26.00
2018-12-23T08:54:32.074Z,26.03
2018-12-23T08:55:32.064Z,26.03
2018-12-23T08:56:32.054Z,26.03
2018-12-23T08:57:32.044Z,26.06
2018-12-23T08:58:32.037Z,26.01
2018-12-23T08:59:32.025Z,26.01
2018-12-23T09:00:32.024Z,26.03
2018-12-23T09:01:32.005Z,26.03
2018-12-23T09:02:31.993Z,26.04
2018-12-23T09:03:31.974Z,26.11
2018-12-23T09:04:31.968Z,26.04
2018-12-23T09:05:31.969Z,26.00
2018-12-23T09:06:31.949Z,26.15
2018-12-23T09:07:31.943Z,26.15
2018-12-23T09:08:31.946Z,26.06
2018-12-23T09:09:31.931Z,26.15
2018-12-23T09:10:31.916Z,26.16
2018-12-23T09:11:31.900Z,26.19
2018-12-23T09:12:31.885Z,26.12
2018-12-23T09:13:31.874Z,26.15
2018-12-23T09:14:31.880Z,26.11
2018-12-23T09:15:31.857Z,26.19
2018-12-23T09:16:31.843Z,26.24
2018-12-23T09:17:32.105Z,26.17
2018-12-23T09:18:31.819Z,26.24
2018-12-23T09:19:31.809Z,26.23
2018-12-23T09:20:31.820Z,26.20
2018-12-23T09:21:31.791Z,26.19
2018-12-23T09:22:31.776Z,26.12
2018-12-23T09:23:31.772Z,26.16
2018-12-23T09:24:31.763Z,26.09
2018-12-23T09:25:31.753Z,26.12
2018-12-23T09:26:31.762Z,26.16
2018-12-23T09:27:31.723Z,26.19
2018-12-23T09:28:31.723Z,26.06
2018-12-23T09:29:31.708Z,26.07
2018-12-23T09:30:31.725Z,26.17
2018-12-23T09:31:31.684Z,26.20
2018-12-23T09:32:31.671Z,26.23
2018-12-23T09:33:31.673Z,26.22
2018-12-23T09:34:31.669Z,26.17
2018-12-23T09:35:31.653Z,26.23
2018-12-23T09:36:31.630Z,26.16
2018-12-23T09:37:31.617Z,26.16
2018-12-23T09:38:31.623Z,26.24
2018-12-23T09:39:31.593Z,26.35
2018-12-23T09:40:31.601Z,26.32
2018-12-23T09:41:31.588Z,26.35
2018-12-23T09:42:31.567Z,26.34
2018-12-23T09:43:31.561Z,26.35
2018-12-23T09:44:31.545Z,26.35
2018-12-23T09:45:31.535Z,26.31
2018-12-23T09:46:31.541Z,26.38
2018-12-23T09:47:31.519Z,26.32
2018-12-23T09:48:31.506Z,26.35
2018-12-23T09:49:31.556Z,26.27
2018-12-23T09:50:31.481Z,26.34
2018-12-23T09:51:31.486Z,26.32
2018-12-23T09:52:31.489Z,26.39
2018-12-23T09:53:31.467Z,26.34
2018-12-23T09:54:31.453Z,26.31
2018-12-23T09:55:31.430Z,26.37
2018-12-23T09:56:31.458Z,26.35
2018-12-23T09:57:31.461Z,26.38
2018-12-23T09:58:31.402Z,26.34
2018-12-23T09:59:31.395Z,26.34
2018-12-23T10:00:31.388Z,26.31
2018-12-23T10:01:31.368Z,26.37
2018-12-23T10:02:33.456Z,26.34
2018-12-23T10:03:31.348Z,26.37
2018-12-23T10:04:31.334Z,26.34
2018-12-23T10:05:31.339Z,26.30
2018-12-23T10:06:31.312Z,26.31
2018-12-23T10:07:31.302Z,26.32
2018-12-23T10:08:31.295Z,26.35
2018-12-23T10:09:31.282Z,26.32
2018-12-23T10:10:31.272Z,26.37
2018-12-23T10:11:31.358Z,26.32
2018-12-23T10:12:31.254Z,26.32
2018-12-23T10:13:31.275Z,26.30
2018-12-23T10:14:31.229Z,26.32
2018-12-23T10:15:31.220Z,26.26
2018-12-23T10:16:31.208Z,26.35
2018-12-23T10:17:31.205Z,26.32
2018-12-23T10:18:31.190Z,26.44
2018-12-23T10:19:31.192Z,26.45
2018-12-23T10:20:31.176Z,26.54
2018-12-23T10:21:31.155Z,26.50
2018-12-23T10:22:31.146Z,26.50
2018-12-23T10:23:31.137Z,26.45
2018-12-23T10:24:31.143Z,26.47
2018-12-23T10:25:31.112Z,26.42
2018-12-23T10:26:31.112Z,26.41
2018-12-23T10:27:31.101Z,26.50
2018-12-23T10:28:31.091Z,26.52
2018-12-23T10:29:31.075Z,26.57
2018-12-23T10:30:31.060Z,26.57
2018-12-23T10:31:31.061Z,26.57
2018-12-23T10:32:31.051Z,26.60
2018-12-23T10:33:31.035Z,26.61
2018-12-23T10:34:33.086Z,26.53
2018-12-23T10:35:31.012Z,26.47
2018-12-23T10:36:30.993Z,26.45
2018-12-23T10:37:31.092Z,26.41
2018-12-23T10:38:31.016Z,26.41
2018-12-23T10:39:30.967Z,26.47
2018-12-23T10:40:30.955Z,26.44
2018-12-23T10:41:30.953Z,26.44
2018-12-23T10:42:30.936Z,26.41
2018-12-23T10:43:30.931Z,26.31
2018-12-23T10:44:30.996Z,26.35
2018-12-23T10:45:30.907Z,26.34
2018-12-23T10:46:30.895Z,26.38
2018-12-23T10:47:30.877Z,26.27
2018-12-23T10:48:30.868Z,26.32
2018-12-23T10:49:30.864Z,26.32
2018-12-23T10:50:30.855Z,26.32
2018-12-23T10:51:30.839Z,26.31
2018-12-23T10:52:30.852Z,26.30
2018-12-23T10:53:30.851Z,26.30
2018-12-23T10:54:30.809Z,26.34
2018-12-23T10:55:30.965Z,26.35
2018-12-23T10:56:30.793Z,26.35
2018-12-23T10:57:30.781Z,26.32
2018-12-23T10:58:30.767Z,26.32
2018-12-23T10:59:30.757Z,26.31
2018-12-23T11:00:30.754Z,26.35
2018-12-23T11:01:30.731Z,26.34
2018-12-23T11:02:30.726Z,26.32
2018-12-23T11:03:30.709Z,26.37
2018-12-23T11:04:30.707Z,26.42
2018-12-23T11:05:30.689Z,26.41
2018-12-23T11:06:30.686Z,26.49
2018-12-23T11:07:30.707Z,26.47
2018-12-23T11:08:30.668Z,26.52
2018-12-23T11:09:30.651Z,26.63
2018-12-23T11:10:30.734Z,26.54
2018-12-23T11:11:30.630Z,26.59
2018-12-23T11:12:30.636Z,26.60
2018-12-23T11:13:30.634Z,26.57
2018-12-23T11:14:30.599Z,26.60
2018-12-23T11:15:30.591Z,26.68
2018-12-23T11:16:30.579Z,26.63
2018-12-23T11:17:30.575Z,26.60
2018-12-23T11:18:30.558Z,26.59
2018-12-23T11:19:30.574Z,26.60
2018-12-23T11:20:30.555Z,26.59
2018-12-23T11:21:31.705Z,26.59
2018-12-23T11:22:30.512Z,26.56
2018-12-23T11:23:30.498Z,26.57
2018-12-23T11:24:30.495Z,26.59
2018-12-23T11:25:30.482Z,26.53
2018-12-23T11:26:30.470Z,26.60
2018-12-23T11:27:30.459Z,26.61
2018-12-23T11:28:30.449Z,26.54
2018-12-23T11:29:30.441Z,26.57
2018-12-23T11:30:30.432Z,26.54
2018-12-23T11:31:30.422Z,26.45
2018-12-23T11:32:30.414Z,26.39
2018-12-23T11:33:30.398Z,26.31
2018-12-23T11:34:30.391Z,26.37
2018-12-23T11:35:30.408Z,26.30
2018-12-23T11:36:30.375Z,26.26
2018-12-23T11:37:30.361Z,26.15
2018-12-23T11:38:35.381Z,26.27
2018-12-23T11:39:31.330Z,26.22
2018-12-23T11:40:30.326Z,26.19
2018-12-23T11:41:30.310Z,26.24
2018-12-23T11:42:30.327Z,26.26
2018-12-23T11:43:30.293Z,26.35
2018-12-23T11:44:30.283Z,26.32
2018-12-23T11:45:30.270Z,26.32
2018-12-23T11:46:30.260Z,26.37
2018-12-23T11:47:30.255Z,26.34
2018-12-23T11:48:30.254Z,26.31
2018-12-23T11:49:30.227Z,26.37
2018-12-23T11:50:30.216Z,26.27
2018-12-23T11:51:30.209Z,26.27
2018-12-23T11:52:30.198Z,26.31
2018-12-23T11:53:30.189Z,26.30
2018-12-23T11:54:30.187Z,26.32
2018-12-23T11:55:30.171Z,26.34
2018-12-23T11:56:30.156Z,26.26
2018-12-23T11:57:30.143Z,26.30
2018-12-23T11:58:30.137Z,26.23
2018-12-23T11:59:30.123Z,26.27
2018-12-23T12:00:30.113Z,26.30
2018-12-23T12:01:30.105Z,26.32
2018-12-23T12:02:30.123Z,26.31
2018-12-23T12:03:30.075Z,26.26
2018-12-23T12:04:30.065Z,26.35
2018-12-23T12:05:30.064Z,26.34
2018-12-23T12:06:30.054Z,26.31
2018-12-23T12:07:30.034Z,26.34
2018-12-23T12:08:30.025Z,26.34
2018-12-23T12:09:30.057Z,26.30
2018-12-23T12:10:30.010Z,26.35
2018-12-23T12:11:29.999Z,26.35
2018-12-23T12:12:29.987Z,26.35
2018-12-23T12:13:29.983Z,26.35
2018-12-23T12:14:29.979Z,26.34
2018-12-23T12:15:29.955Z,26.38
2018-12-23T12:16:29.942Z,26.37
2018-12-23T12:17:29.936Z,26.34
2018-12-23T12:18:29.964Z,26.35
2018-12-23T12:19:29.916Z,26.39
2018-12-23T12:20:29.903Z,26.34
2018-12-23T12:21:29.899Z,26.32
2018-12-23T12:22:29.881Z,26.34
2018-12-23T12:23:29.898Z,26.34
2018-12-23T12:24:29.861Z,26.32
2018-12-23T12:25:29.858Z,26.31
2018-12-23T12:26:29.955Z,26.30
2018-12-23T12:27:29.827Z,26.24
2018-12-23T12:28:29.818Z,26.26
2018-12-23T12:29:29.814Z,26.24
2018-12-23T12:30:29.804Z,26.17
2018-12-23T12:31:29.795Z,26.19
2018-12-23T12:32:29.776Z,26.19
2018-12-23T12:33:29.768Z,26.19
2018-12-23T12:34:29.758Z,26.22
2018-12-23T12:35:29.750Z,26.20
2018-12-23T12:36:29.732Z,26.17
2018-12-23T12:37:29.724Z,26.16
2018-12-23T12:38:29.714Z,26.16
2018-12-23T12:39:29.710Z,26.22
2018-12-23T12:40:29.688Z,26.15
2018-12-23T12:41:29.679Z,26.32
2018-12-23T12:42:29.695Z,26.32
2018-12-23T12:43:29.660Z,26.23
2018-12-23T12:44:29.660Z,26.27
2018-12-23T12:45:29.649Z,26.30
2018-12-23T12:46:29.629Z,26.27
2018-12-23T12:47:29.629Z,26.23
2018-12-23T12:48:29.619Z,26.20
2018-12-23T12:49:29.600Z,26.31
2018-12-23T12:50:29.582Z,26.23
2018-12-23T12:51:29.577Z,26.19
2018-12-23T12:52:29.563Z,26.20